Time;durP1;ratioP1;P1;durP2;ratioP2;P2;SDS_P1;SDS_P2;PMS_P1;PMS_P2;Temp;Humidity;BMP_temperature;BMP_pressure;BME280_temperature;BME280_humidity;BME280_pressure;Samples;Min_cycle;Max_cycle;Signal;HPM_P1;HPM_P2
2023/12/10 00:00:15;;;;;;;;;2.67;2.00;;;;;14.57;100.00;100434.75;2084333;28;46718;-57
2023/12/10 00:01:16;;;;;;;;;2.75;2.50;;;;;14.56;100.00;100429.50;2086255;28;46758;-56
2023/12/10 00:02:16;;;;;;;;;3.33;3.00;;;;;14.58;100.00;100431.16;2087681;28;46273;-56
2023/12/10 00:03:19;;;;;;;;;4.67;2.00;;;;;14.58;100.00;100436.50;2087931;28;46312;-59
2023/12/10 00:04:19;;;;;;;;;2.25;2.00;;;;;14.59;100.00;100435.56;2087748;28;46395;-54
2023/12/10 00:05:19;;;;;;;;;2.00;2.00;;;;;14.59;100.00;100432.03;2085995;28;46201;-55
2023/12/10 00:06:19;;;;;;;;;5.00;2.00;;;;;14.61;100.00;100435.50;2088197;28;46793;-57
2023/12/10 00:07:20;;;;;;;;;5.67;3.00;;;;;14.63;100.00;100439.84;2088008;28;46592;-56
2023/12/10 00:08:20;;;;;;;;;5.00;2.00;;;;;14.64;100.00;100432.72;2088041;28;46121;-54
2023/12/10 00:09:21;;;;;;;;;3.00;2.00;;;;;14.64;100.00;100432.72;2087649;28;46680;-55
2023/12/10 00:10:21;;;;;;;;;2.00;0.00;;;;;14.64;100.00;100449.59;2088590;28;46536;-57
2023/12/10 00:11:22;;;;;;;;;5.67;4.00;;;;;14.64;100.00;100444.25;2088258;28;45890;-57
2023/12/10 00:12:22;;;;;;;;;6.00;3.00;;;;;14.65;100.00;100445.13;2088032;28;46748;-56
2023/12/10 00:13:22;;;;;;;;;3.33;2.67;;;;;14.64;100.00;100438.06;2087954;28;46454;-56
2023/12/10 00:14:26;;;;;;;;;2.67;2.67;;;;;14.63;100.00;100447.00;2087693;28;46620;-54
2023/12/10 00:15:26;;;;;;;;;4.50;2.50;;;;;14.62;100.00;100445.25;2087876;28;46835;-56
2023/12/10 00:16:27;;;;;;;;;3.00;3.00;;;;;14.61;100.00;100455.09;2087877;28;46350;-58
2023/12/10 00:17:27;;;;;;;;;3.00;2.67;;;;;14.62;100.00;100462.16;2087626;28;45640;-56
2023/12/10 00:18:27;;;;;;;;;2.33;2.33;;;;;14.62;100.00;100448.81;2085717;28;45119;-55
2023/12/10 00:19:28;;;;;;;;;4.00;2.67;;;;;14.64;100.00;100456.75;2081862;28;46654;-54
2023/12/10 00:20:28;;;;;;;;;5.00;2.00;;;;;14.63;100.00;100461.22;2085010;28;46624;-54
2023/12/10 00:21:28;;;;;;;;;2.33;2.00;;;;;14.64;100.00;100465.63;2087904;28;46665;-58
2023/12/10 00:22:29;;;;;;;;;3.67;3.67;;;;;14.64;100.00;100468.28;2088021;28;46244;-57
2023/12/10 00:23:29;;;;;;;;;3.67;3.67;;;;;14.64;100.00;100454.94;2087578;28;46405;-59
2023/12/10 00:24:29;;;;;;;;;4.00;3.33;;;;;14.65;100.00;100458.47;2088257;28;46315;-54
2023/12/10 00:25:31;;;;;;;;;7.00;3.00;;;;;14.65;100.00;100459.34;2087948;28;46251;-56
2023/12/10 00:26:32;;;;;;;;;5.00;3.00;;;;;14.65;100.00;100455.81;2087871;28;46902;-55
2023/12/10 00:27:32;;;;;;;;;3.67;2.67;;;;;14.64;100.00;100457.63;2087883;28;46237;-56
2023/12/10 00:28:32;;;;;;;;;4.00;2.00;;;;;14.64;100.00;100456.75;2087899;28;46816;-53
2023/12/10 00:29:33;;;;;;;;;1.33;1.00;;;;;14.64;100.00;100454.94;2087725;28;46723;-57
2023/12/10 00:30:33;;;;;;;;;4.67;3.00;;;;;14.64;100.00;100467.44;2088147;28;46106;-56
2023/12/10 00:31:33;;;;;;;;;3.67;2.33;;;;;14.64;100.00;100464.75;2087607;28;46225;-57
2023/12/10 00:32:34;;;;;;;;;3.67;3.00;;;;;14.64;100.00;100462.09;2088150;28;46838;-56
2023/12/10 00:33:34;;;;;;;;;2.00;2.00;;;;;14.63;100.00;100463.88;2087654;28;46599;-57
2023/12/10 00:34:34;;;;;;;;;5.00;3.00;;;;;14.60;100.00;100468.47;2087748;28;46569;-55
2023/12/10 00:35:35;;;;;;;;;3.33;2.00;;;;;14.61;100.00;100459.53;2086499;28;46595;-54
2023/12/10 00:36:35;;;;;;;;;1.67;1.67;;;;;14.62;100.00;100450.59;2087274;28;46264;-54
2023/12/10 00:37:36;;;;;;;;;3.00;3.00;;;;;14.61;100.00;100464.84;2087707;28;46664;-56
2023/12/10 00:38:38;;;;;;;;;2.33;1.33;;;;;14.61;100.00;100462.19;2088337;28;46301;-56
2023/12/10 00:39:39;;;;;;;;;3.50;3.50;;;;;14.58;100.00;100459.66;2069605;28;46768;-54
2023/12/10 00:40:39;;;;;;;;;3.25;3.00;;;;;14.59;100.00;100462.25;2061692;28;46216;-55
2023/12/10 00:41:39;;;;;;;;;2.00;2.00;;;;;14.59;100.00;100464.06;2053593;28;46583;-54
2023/12/10 00:42:41;;;;;;;;;3.33;2.33;;;;;14.59;100.00;100467.59;2053855;28;46793;-57
2023/12/10 00:43:42;;;;;;;;;4.00;3.00;;;;;14.62;100.00;100466.63;2070353;28;46317;-61
2023/12/10 00:44:42;;;;;;;;;4.67;3.67;;;;;14.62;100.00;100462.16;2062234;28;46711;-58
2023/12/10 00:45:43;;;;;;;;;4.67;3.00;;;;;14.62;100.00;100469.31;2062153;28;46664;-57
2023/12/10 00:46:43;;;;;;;;;3.33;3.33;;;;;14.62;100.00;100477.31;2069955;28;46181;-55
2023/12/10 00:47:43;;;;;;;;;3.00;3.00;;;;;14.61;100.00;100478.22;2070279;28;46369;-55
2023/12/10 00:48:44;;;;;;;;;4.33;1.67;;;;;14.61;100.00;100475.53;2070218;28;46589;-54
2023/12/10 00:49:44;;;;;;;;;4.33;2.00;;;;;14.61;100.00;100483.56;2069968;28;46656;-58
2023/12/10 00:50:44;;;;;;;;;3.33;2.67;;;;;14.57;100.00;100474.81;2061836;28;46067;-57
2023/12/10 00:51:44;;;;;;;;;3.00;3.00;;;;;14.56;100.00;100481.09;2062135;28;46372;-54
2023/12/10 00:52:45;;;;;;;;;2.67;2.67;;;;;14.56;100.00;100481.09;2060474;28;46561;-55
2023/12/10 00:53:47;;;;;;;;;2.50;2.50;;;;;14.56;100.00;100480.22;2050265;28;46343;-57
2023/12/10 00:54:47;;;;;;;;;5.00;4.00;;;;;14.56;100.00;100486.44;2053788;28;46237;-57
2023/12/10 00:55:47;;;;;;;;;4.33;3.00;;;;;14.57;100.00;100493.50;2070184;28;46821;-55
2023/12/10 00:56:48;;;;;;;;;4.33;3.67;;;;;14.57;100.00;100492.63;2070162;28;46147;-55
2023/12/10 00:57:49;;;;;;;;;2.25;2.25;;;;;14.56;100.00;100498.91;2070294;28;46585;-56
2023/12/10 00:58:49;;;;;;;;;3.33;3.00;;;;;14.58;100.00;100500.59;2070018;28;46312;-54
2023/12/10 00:59:49;;;;;;;;;5.00;3.33;;;;;14.61;100.00;100508.50;2070334;28;46620;-55
2023/12/10 01:00:50;;;;;;;;;2.33;1.00;;;;;14.61;100.00;100499.59;2070248;28;46136;-56
2023/12/10 01:01:50;;;;;;;;;3.00;2.33;;;;;14.61;100.00;100500.47;2070078;28;45022;-55
2023/12/10 01:02:50;;;;;;;;;2.00;2.00;;;;;14.59;100.00;100505.00;2061485;28;46702;-53
2023/12/10 01:03:51;;;;;;;;;4.67;2.67;;;;;14.58;100.00;100497.91;2061689;28;46444;-54
2023/12/10 01:04:51;;;;;;;;;4.00;2.00;;;;;14.54;100.00;100493.63;2070293;28;46678;-57
2023/12/10 01:05:52;;;;;;;;;5.67;3.33;;;;;14.55;100.00;100505.19;2070121;28;46555;-54
2023/12/10 01:06:52;;;;;;;;;4.67;4.00;;;;;14.54;100.00;100515.00;2070208;28;46489;-54
2023/12/10 01:07:52;;;;;;;;;3.00;2.00;;;;;14.53;100.00;100509.72;2070946;28;46399;-58
2023/12/10 01:08:53;;;;;;;;;2.00;2.00;;;;;14.53;100.00;100510.59;2071546;28;46399;-56
2023/12/10 01:09:53;;;;;;;;;3.33;2.33;;;;;14.54;100.00;100522.16;2070466;28;46214;-56
2023/12/10 01:10:53;;;;;;;;;4.00;4.00;;;;;14.54;100.00;100523.00;2072126;28;46264;-57
2023/12/10 01:11:54;;;;;;;;;3.33;2.67;;;;;14.55;100.00;100529.22;2086559;28;46506;-57
2023/12/10 01:12:54;;;;;;;;;6.67;3.33;;;;;14.54;100.00;100523.00;2089137;28;46300;-56
2023/12/10 01:13:55;;;;;;;;;5.00;3.00;;;;;14.55;100.00;100529.22;2089603;28;46399;-56
2023/12/10 01:14:55;;;;;;;;;2.33;1.33;;;;;14.54;100.00;100525.69;2088700;28;47030;-55
2023/12/10 01:15:55;;;;;;;;;3.67;2.00;;;;;14.55;100.00;100535.44;2088377;28;46913;-57
2023/12/10 01:16:55;;;;;;;;;3.33;3.00;;;;;14.55;100.00;100543.44;2088723;28;46600;-57
2023/12/10 01:18:04;;;;;;;;;3.00;3.00;;;;;14.55;100.00;100543.44;2088961;28;46305;-56
2023/12/10 01:19:04;;;;;;;;;3.00;2.00;;;;;14.56;100.00;100552.31;2089252;28;46928;-58
2023/12/10 01:20:05;;;;;;;;;6.00;3.00;;;;;14.56;100.00;100546.97;2088897;28;46368;-57
2023/12/10 01:21:09;;;;;;;;;5.00;2.50;;;;;14.55;100.00;100548.78;2089240;28;46296;-56
2023/12/10 01:22:09;;;;;;;;;4.25;3.00;;;;;14.55;100.00;100546.13;2088831;28;46462;-59
2023/12/10 01:23:10;;;;;;;;;4.67;4.00;;;;;14.55;100.00;100555.94;2088881;28;46311;-57
2023/12/10 01:24:15;;;;;;;;;5.00;3.00;;;;;14.56;100.00;100553.19;2088996;28;46815;-58
2023/12/10 01:25:16;;;;;;;;;5.00;3.00;;;;;14.57;100.00;100562.06;2085722;28;46858;-55
2023/12/10 01:26:16;;;;;;;;;3.00;1.00;;;;;14.57;100.00;100562.94;2085817;28;46306;-56
2023/12/10 01:27:16;;;;;;;;;3.33;3.00;;;;;14.56;100.00;100563.88;2079639;28;46945;-54
2023/12/10 01:28:17;;;;;;;;;6.33;3.00;;;;;14.57;100.00;100565.59;2087993;28;45526;-57
2023/12/10 01:29:17;;;;;;;;;2.33;2.33;;;;;14.56;100.00;100563.88;2088915;28;46572;-54
2023/12/10 01:30:24;;;;;;;;;3.33;3.33;;;;;14.58;100.00;100566.47;2088654;28;46330;-57
2023/12/10 01:31:26;;;;;;;;;3.00;2.00;;;;;14.55;100.00;100569.28;2088902;28;46428;-54
2023/12/10 01:32:26;;;;;;;;;3.25;2.75;;;;;14.57;100.00;100562.94;2089313;28;46752;-54
2023/12/10 01:33:27;;;;;;;;;6.00;4.00;;;;;14.58;100.00;100578.03;2086568;28;46351;-58
2023/12/10 01:34:27;;;;;;;;;6.67;3.00;;;;;14.58;100.00;100567.34;2088733;28;46123;-55
2023/12/10 01:35:27;;;;;;;;;5.00;3.33;;;;;14.59;100.00;100579.78;2089132;28;46195;-57
2023/12/10 01:36:28;;;;;;;;;5.00;3.00;;;;;14.59;100.00;100584.25;2088916;28;47019;-59
2023/12/10 01:37:28;;;;;;;;;5.00;3.00;;;;;14.59;100.00;100578.91;2088562;28;46520;-56
2023/12/10 01:38:28;;;;;;;;;3.00;3.00;;;;;14.58;100.00;100577.16;2087617;28;47003;-60
2023/12/10 01:39:30;;;;;;;;;5.00;2.67;;;;;14.58;100.00;100588.72;2089033;28;46579;-58
2023/12/10 01:40:32;;;;;;;;;4.25;3.00;;;;;14.59;100.00;100589.59;2089435;28;45691;-53
2023/12/10 01:41:33;;;;;;;;;2.00;1.25;;;;;14.59;100.00;100595.78;2088861;28;46716;-57
2023/12/10 01:42:34;;;;;;;;;5.25;2.00;;;;;14.58;100.00;100601.19;2087170;28;46491;-57
2023/12/10 01:43:35;;;;;;;;;3.50;2.75;;;;;14.59;100.00;100602.94;2088972;28;46681;-55
2023/12/10 01:44:35;;;;;;;;;5.33;4.33;;;;;14.59;100.00;100594.91;2088738;28;46671;-54
2023/12/10 01:45:36;;;;;;;;;2.00;2.00;;;;;14.58;100.00;100590.50;2089140;28;47258;-55
2023/12/10 01:46:36;;;;;;;;;2.67;2.67;;;;;14.58;100.00;100590.50;2088524;28;46381;-55
2023/12/10 01:47:41;;;;;;;;;5.33;4.00;;;;;14.62;100.00;100584.13;2088867;28;46453;-54
2023/12/10 01:48:45;;;;;;;;;1.50;1.50;;;;;14.62;100.00;100593.03;2088788;28;46359;-56
2023/12/10 01:49:46;;;;;;;;;3.50;2.25;;;;;14.60;100.00;100588.66;2088854;28;46978;-55
2023/12/10 01:50:48;;;;;;;;;3.25;3.25;;;;;14.56;100.00;100587.03;2088669;28;46394;-55
2023/12/10 01:51:49;;;;;;;;;4.25;3.00;;;;;14.54;100.00;100592.44;2088704;28;46797;-54
2023/12/10 01:52:50;;;;;;;;;5.50;2.25;;;;;14.54;100.00;100596.91;2088855;28;46537;-57
2023/12/10 01:53:50;;;;;;;;;2.00;2.00;;;;;14.54;100.00;100594.25;2089061;28;46927;-58
2023/12/10 01:54:51;;;;;;;;;4.67;4.67;;;;;14.54;100.00;100591.59;2088740;28;46532;-57
2023/12/10 01:55:51;;;;;;;;;6.00;5.33;;;;;14.53;100.00;100590.72;2082832;28;46471;-54
2023/12/10 01:56:54;;;;;;;;;3.67;2.00;;;;;14.52;100.00;100594.31;2088675;28;46904;-54
2023/12/10 01:57:54;;;;;;;;;3.00;3.00;;;;;14.51;100.00;100583.69;2089073;28;46577;-56
2023/12/10 01:58:55;;;;;;;;;2.33;2.33;;;;;14.50;100.00;100579.28;2084549;28;46044;-56
2023/12/10 01:59:57;;;;;;;;;3.67;3.00;;;;;14.49;100.00;100591.78;2087542;28;46509;-56
2023/12/10 02:00:58;;;;;;;;;2.25;2.25;;;;;14.50;100.00;100584.63;2085471;28;46785;-57
2023/12/10 02:01:58;;;;;;;;;2.67;2.67;;;;;14.49;100.00;100577.56;2083522;28;46275;-55
2023/12/10 02:03:02;;;;;;;;;3.00;2.00;;;;;14.50;100.00;100579.28;2088120;28;46427;-55
2023/12/10 02:04:05;;;;;;;;;3.25;2.00;;;;;14.48;100.00;100582.00;2088654;28;46633;-57
2023/12/10 02:05:07;;;;;;;;;2.25;2.25;;;;;14.49;100.00;100589.09;2088501;28;46469;-56
2023/12/10 02:06:08;;;;;;;;;2.50;2.50;;;;;14.48;100.00;100587.34;2087599;28;46367;-56
2023/12/10 02:07:08;;;;;;;;;2.67;2.67;;;;;14.47;100.00;100590.94;2088940;28;45854;-55
2023/12/10 02:08:08;;;;;;;;;4.00;2.00;;;;;14.46;100.00;100589.19;2089026;28;45734;-55
2023/12/10 02:09:14;;;;;;;;;3.00;3.00;;;;;14.45;100.00;100599.94;2089097;28;46077;-54
2023/12/10 02:10:14;;;;;;;;;2.00;2.00;;;;;14.46;100.00;100588.34;2081916;28;46862;-54
2023/12/10 02:11:15;;;;;;;;;4.33;3.00;;;;;14.44;100.00;100588.41;2088837;28;46408;-58
2023/12/10 02:12:17;;;;;;;;;2.67;2.67;;;;;14.45;100.00;100589.25;2088723;28;46791;-55
2023/12/10 02:13:18;;;;;;;;;3.00;2.00;;;;;14.45;100.00;100591.94;2088993;28;45184;-57
2023/12/10 02:14:19;;;;;;;;;2.67;1.33;;;;;14.45;100.00;100600.81;2088701;28;46796;-55
2023/12/10 02:15:20;;;;;;;;;3.00;3.00;;;;;14.46;100.00;100596.34;2089276;28;46211;-57
2023/12/10 02:16:20;;;;;;;;;3.75;3.75;;;;;14.47;100.00;100593.59;2087409;28;46580;-52
2023/12/10 02:17:21;;;;;;;;;6.00;3.00;;;;;14.48;100.00;100599.81;2089101;28;46776;-55
2023/12/10 02:18:22;;;;;;;;;4.33;2.00;;;;;14.48;100.00;100598.00;2088646;28;46951;-56
2023/12/10 02:19:22;;;;;;;;;4.33;1.33;;;;;14.47;100.00;100609.63;2088718;28;46713;-55
2023/12/10 02:20:23;;;;;;;;;2.00;2.00;;;;;14.46;100.00;100617.69;2089032;28;46743;-55
2023/12/10 02:21:24;;;;;;;;;4.00;3.67;;;;;14.45;100.00;100615.97;2088038;28;46403;-55
2023/12/10 02:22:25;;;;;;;;;0.75;0.00;;;;;14.43;100.00;100622.19;2088439;28;46619;-53
2023/12/10 02:23:33;;;;;;;;;3.00;2.33;;;;;14.44;100.00;100615.09;2088295;28;46876;-53
2023/12/10 02:24:52;;;;;;;;;4.00;4.00;;;;;14.45;100.00;100616.84;2087500;28;46530;-51
2023/12/10 02:25:52;;;;;;;;;5.00;4.25;;;;;14.45;100.00;100621.31;2079878;28;46617;-56
2023/12/10 02:26:53;;;;;;;;;2.00;2.00;;;;;14.46;100.00;100612.38;2088718;28;45219;-54
2023/12/10 02:27:53;;;;;;;;;3.00;3.00;;;;;14.43;100.00;100616.00;2089072;28;45594;-57
2023/12/10 02:28:54;;;;;;;;;4.00;3.00;;;;;14.45;100.00;100615.97;2088501;28;46906;-56
2023/12/10 02:29:55;;;;;;;;;3.00;2.00;;;;;14.44;100.00;100623.09;2088606;28;46890;-55
2023/12/10 02:30:55;;;;;;;;;3.25;2.00;;;;;14.45;100.00;100630.19;2088329;28;46532;-54
2023/12/10 02:31:56;;;;;;;;;2.00;2.00;;;;;14.44;100.00;100623.09;2088305;28;46243;-54
2023/12/10 02:32:57;;;;;;;;;4.33;1.33;;;;;14.45;100.00;100626.66;2084211;28;46988;-54
2023/12/10 02:33:57;;;;;;;;;2.75;2.00;;;;;14.45;100.00;100618.63;2088788;28;46412;-52
2023/12/10 02:34:57;;;;;;;;;2.00;2.00;;;;;14.45;100.00;100629.31;2088839;28;45763;-54
2023/12/10 02:35:58;;;;;;;;;2.00;1.00;;;;;14.44;100.00;100625.78;2088593;28;46616;-53
2023/12/10 02:36:58;;;;;;;;;4.00;2.00;;;;;14.45;100.00;100632.84;2088761;28;46278;-52
2023/12/10 02:37:59;;;;;;;;;3.00;2.00;;;;;14.46;100.00;100633.72;2088494;28;46838;-56
2023/12/10 02:38:59;;;;;;;;;5.67;4.00;;;;;14.46;100.00;100633.72;2088546;28;46476;-56
2023/12/10 02:40:00;;;;;;;;;3.00;2.33;;;;;14.43;100.00;100630.22;2086612;28;46657;-55
2023/12/10 02:41:01;;;;;;;;;4.00;2.00;;;;;14.43;100.00;100635.56;2088699;28;46346;-55
2023/12/10 02:42:02;;;;;;;;;3.00;2.00;;;;;14.42;100.00;100633.81;2088853;28;46760;-55
2023/12/10 02:43:02;;;;;;;;;4.67;3.00;;;;;14.43;100.00;100637.34;2088461;28;45988;-53
2023/12/10 02:44:03;;;;;;;;;2.00;0.00;;;;;14.43;100.00;100637.34;2089231;28;46171;-54
2023/12/10 02:45:04;;;;;;;;;2.00;1.33;;;;;14.43;100.00;100637.34;2088715;28;45556;-53
2023/12/10 02:46:04;;;;;;;;;4.67;2.00;;;;;14.43;100.00;100640.03;2088508;28;46205;-55
2023/12/10 02:47:04;;;;;;;;;3.00;2.67;;;;;14.43;100.00;100646.22;2088793;28;46575;-55
2023/12/10 02:48:05;;;;;;;;;3.00;3.00;;;;;14.42;100.00;100639.16;2087146;28;46203;-56
2023/12/10 02:49:05;;;;;;;;;3.00;2.33;;;;;14.42;100.00;100640.97;2088338;28;46271;-54
2023/12/10 02:50:07;;;;;;;;;2.00;2.00;;;;;14.42;100.00;100644.50;2087207;28;46322;-53
2023/12/10 02:51:07;;;;;;;;;4.50;2.00;;;;;14.41;100.00;100639.22;2087713;28;46629;-53
2023/12/10 02:52:07;;;;;;;;;3.00;2.00;;;;;14.41;100.00;100641.88;2088552;28;46966;-55
2023/12/10 02:53:08;;;;;;;;;3.00;1.67;;;;;14.42;100.00;100643.63;2089135;28;46537;-56
2023/12/10 02:54:08;;;;;;;;;4.67;3.00;;;;;14.40;100.00;100640.16;2096487;28;46238;-55
2023/12/10 02:55:09;;;;;;;;;3.00;3.00;;;;;14.39;100.00;100649.97;2096402;28;46299;-56
2023/12/10 02:56:09;;;;;;;;;2.33;2.33;;;;;14.39;100.00;100647.28;2088660;28;46411;-57
2023/12/10 02:57:09;;;;;;;;;2.00;2.00;;;;;14.39;100.00;100635.75;2088456;28;46410;-54
2023/12/10 02:58:10;;;;;;;;;3.33;3.00;;;;;14.39;100.00;100633.06;2088166;28;46551;-55
2023/12/10 02:59:10;;;;;;;;;4.00;2.00;;;;;14.38;100.00;100648.22;2088452;28;46330;-55
2023/12/10 03:00:15;;;;;;;;;4.67;3.67;;;;;14.38;100.00;100639.34;2088504;28;46563;-56
2023/12/10 03:01:16;;;;;;;;;3.75;2.25;;;;;14.37;100.00;100651.81;2088324;28;46333;-55
2023/12/10 03:02:16;;;;;;;;;3.67;3.00;;;;;14.35;100.00;100650.13;2087959;28;46063;-56
2023/12/10 03:03:16;;;;;;;;;3.00;2.00;;;;;14.36;100.00;100650.09;2088724;28;46463;-53
2023/12/10 03:04:17;;;;;;;;;2.00;2.00;;;;;14.37;100.00;100654.50;2088267;28;46308;-54
2023/12/10 03:05:17;;;;;;;;;3.67;2.33;;;;;14.37;100.00;100658.97;2084736;28;46879;-56
2023/12/10 03:06:17;;;;;;;;;4.67;3.67;;;;;14.38;100.00;100658.03;2088477;28;46712;-55
2023/12/10 03:07:18;;;;;;;;;7.00;6.00;;;;;14.38;100.00;100666.91;2088845;28;46775;-57
2023/12/10 03:08:18;;;;;;;;;3.33;2.33;;;;;14.37;100.00;100667.84;2088937;28;46227;-57
2023/12/10 03:09:18;;;;;;;;;2.00;2.00;;;;;14.38;100.00;100671.38;2088930;28;46647;-52
2023/12/10 03:10:19;;;;;;;;;4.00;2.00;;;;;14.38;100.00;100671.38;2088833;28;46533;-53
2023/12/10 03:11:20;;;;;;;;;6.25;4.50;;;;;14.37;100.00;100683.88;2088574;28;46928;-52
2023/12/10 03:12:20;;;;;;;;;2.33;2.33;;;;;14.38;100.00;100676.72;2088372;28;46233;-57
2023/12/10 03:13:20;;;;;;;;;3.33;3.00;;;;;14.37;100.00;100672.31;2088686;28;46198;-52
2023/12/10 03:14:21;;;;;;;;;2.67;2.00;;;;;14.38;100.00;100692.75;2088338;28;46341;-55
2023/12/10 03:15:21;;;;;;;;;4.00;2.67;;;;;14.37;100.00;100694.53;2088148;28;46245;-53
2023/12/10 03:16:21;;;;;;;;;3.67;2.67;;;;;14.37;100.00;100691.88;2088284;28;46755;-52
2023/12/10 03:17:21;;;;;;;;;5.00;3.67;;;;;14.38;100.00;100690.94;2087928;28;46256;-55
2023/12/10 03:18:22;;;;;;;;;3.00;1.33;;;;;14.36;100.00;100694.59;2087463;28;46186;-54
2023/12/10 03:19:22;;;;;;;;;5.00;3.33;;;;;14.35;100.00;100698.16;2080256;28;46220;-56
2023/12/10 03:20:22;;;;;;;;;3.00;2.00;;;;;14.36;100.00;100699.94;2085036;28;46289;-55
2023/12/10 03:21:23;;;;;;;;;4.00;2.33;;;;;14.36;100.00;100694.59;2086558;28;46493;-56
2023/12/10 03:22:23;;;;;;;;;3.00;2.67;;;;;14.35;100.00;100692.84;2088214;28;46785;-56
2023/12/10 03:23:23;;;;;;;;;7.00;3.00;;;;;14.36;100.00;100692.81;2088244;28;46570;-55
2023/12/10 03:24:24;;;;;;;;;2.00;2.00;;;;;14.37;100.00;100694.53;2088483;28;46310;-57
2023/12/10 03:25:24;;;;;;;;;3.67;2.00;;;;;14.37;100.00;100694.53;2088555;28;46558;-57
2023/12/10 03:26:24;;;;;;;;;3.00;1.00;;;;;14.38;100.00;100690.94;2088245;28;46632;-57
2023/12/10 03:27:25;;;;;;;;;2.67;2.00;;;;;14.39;100.00;100692.69;2088291;28;46466;-56
2023/12/10 03:28:25;;;;;;;;;4.00;2.00;;;;;14.39;100.00;100691.81;2088297;28;46273;-58
2023/12/10 03:29:25;;;;;;;;;5.00;3.00;;;;;14.39;100.00;100692.69;2070536;28;46577;-53
2023/12/10 03:30:25;;;;;;;;;3.00;2.00;;;;;14.42;100.00;100699.69;2069995;28;45212;-57
2023/12/10 03:31:26;;;;;;;;;4.33;4.33;;;;;14.41;100.00;100704.16;2087764;28;46364;-58
2023/12/10 03:32:26;;;;;;;;;3.67;3.00;;;;;14.41;100.00;100703.28;2089098;28;46342;-54
2023/12/10 03:33:26;;;;;;;;;2.00;2.00;;;;;14.41;100.00;100705.97;2088088;28;46369;-56
2023/12/10 03:34:27;;;;;;;;;5.00;3.00;;;;;14.41;100.00;100712.19;2087997;28;46420;-55
2023/12/10 03:35:27;;;;;;;;;2.00;1.00;;;;;14.41;100.00;100708.63;2088356;28;46866;-56
2023/12/10 03:36:27;;;;;;;;;4.33;1.33;;;;;14.42;100.00;100715.72;2088290;28;46654;-55
2023/12/10 03:37:28;;;;;;;;;3.33;2.00;;;;;14.42;100.00;100713.03;2086915;28;47260;-57
2023/12/10 03:38:29;;;;;;;;;2.00;2.00;;;;;14.42;100.00;100716.59;2088175;28;46546;-55
2023/12/10 03:39:30;;;;;;;;;3.25;2.25;;;;;14.43;100.00;100715.66;2087780;28;46709;-57
2023/12/10 03:40:30;;;;;;;;;2.67;2.67;;;;;14.45;100.00;100714.75;2088523;28;46711;-56
2023/12/10 03:41:30;;;;;;;;;3.33;2.00;;;;;14.44;100.00;100719.22;2088251;28;46666;-57
2023/12/10 03:42:31;;;;;;;;;5.33;3.67;;;;;14.44;100.00;100721.91;2088231;28;46538;-56
2023/12/10 03:43:31;;;;;;;;;2.67;2.00;;;;;14.45;100.00;100720.09;2088140;28;46030;-56
2023/12/10 03:44:32;;;;;;;;;4.67;3.00;;;;;14.45;100.00;100712.09;2091428;28;46615;-55
2023/12/10 03:45:32;;;;;;;;;3.50;2.75;;;;;14.45;100.00;100710.28;2077251;28;46249;-57
2023/12/10 03:46:33;;;;;;;;;2.00;2.00;;;;;14.45;100.00;100717.44;2087667;28;46451;-58
2023/12/10 03:47:33;;;;;;;;;4.00;2.00;;;;;14.46;100.00;100721.84;2082624;28;46266;-55
2023/12/10 03:48:33;;;;;;;;;2.00;2.00;;;;;14.45;100.00;100728.97;2088723;28;46501;-55
2023/12/10 03:49:34;;;;;;;;;3.33;3.00;;;;;14.47;100.00;100731.59;2087923;28;46673;-56
2023/12/10 03:50:34;;;;;;;;;1.33;1.00;;;;;14.45;100.00;100734.31;2088061;28;46153;-55
2023/12/10 03:51:34;;;;;;;;;1.67;1.00;;;;;14.46;100.00;100721.84;2088055;28;46783;-55
2023/12/10 03:52:35;;;;;;;;;5.33;3.00;;;;;14.46;100.00;100735.19;2087953;28;46504;-56
2023/12/10 03:53:35;;;;;;;;;4.67;4.00;;;;;14.46;100.00;100737.84;2088143;28;46355;-58
2023/12/10 03:54:35;;;;;;;;;3.67;2.67;;;;;14.46;100.00;100733.38;2085658;28;46077;-57
2023/12/10 03:55:35;;;;;;;;;4.00;3.00;;;;;14.47;100.00;100739.59;2087087;28;46834;-55
2023/12/10 03:56:36;;;;;;;;;2.67;1.00;;;;;14.46;100.00;100746.75;2088522;28;46506;-55
2023/12/10 03:57:36;;;;;;;;;3.00;2.00;;;;;14.46;100.00;100744.06;2088132;28;45880;-55
2023/12/10 03:58:37;;;;;;;;;5.00;3.00;;;;;14.46;100.00;100752.06;2088241;28;47964;-54
2023/12/10 03:59:37;;;;;;;;;2.00;1.67;;;;;14.47;100.00;100750.28;2087902;28;46495;-58
2023/12/10 04:00:37;;;;;;;;;4.67;3.00;;;;;14.46;100.00;100736.06;2088292;28;46152;-54
2023/12/10 04:01:42;;;;;;;;;7.00;4.00;;;;;14.48;100.00;100747.53;2088706;28;46951;-54
2023/12/10 04:02:42;;;;;;;;;3.25;2.75;;;;;14.47;100.00;100744.94;2095767;28;46467;-54
2023/12/10 04:03:43;;;;;;;;;4.67;2.00;;;;;14.47;100.00;100745.81;2095800;28;46131;-55
2023/12/10 04:04:43;;;;;;;;;1.67;1.67;;;;;14.48;100.00;100747.53;2088137;28;46785;-56
2023/12/10 04:05:44;;;;;;;;;3.00;2.00;;;;;14.48;100.00;100734.19;2088075;28;46402;-56
2023/12/10 04:06:44;;;;;;;;;2.33;2.33;;;;;14.49;100.00;100740.44;2087947;28;46817;-54
2023/12/10 04:07:48;;;;;;;;;3.33;2.67;;;;;14.49;100.00;100733.28;2088219;28;46613;-55
2023/12/10 04:08:48;;;;;;;;;2.75;2.75;;;;;14.49;100.00;100733.28;2086929;28;46683;-56
2023/12/10 04:09:49;;;;;;;;;3.67;2.00;;;;;14.50;100.00;100737.72;2085865;28;46396;-53
2023/12/10 04:10:49;;;;;;;;;4.33;3.67;;;;;14.50;100.00;100737.72;2087752;28;46245;-56
2023/12/10 04:11:50;;;;;;;;;1.00;1.00;;;;;14.50;100.00;100737.72;2086535;28;46657;-54
2023/12/10 04:12:50;;;;;;;;;4.00;3.00;;;;;14.50;100.00;100736.84;2087957;28;46752;-54
2023/12/10 04:13:50;;;;;;;;;2.33;2.33;;;;;14.49;100.00;100741.31;2087822;28;46654;-54
2023/12/10 04:14:51;;;;;;;;;8.00;3.00;;;;;14.51;100.00;100746.59;2088124;28;45841;-55
2023/12/10 04:15:51;;;;;;;;;3.00;3.00;;;;;14.49;100.00;100746.66;2087800;28;46776;-56
2023/12/10 04:16:51;;;;;;;;;7.00;4.67;;;;;14.49;100.00;100748.44;2087902;28;46596;-54
2023/12/10 04:17:51;;;;;;;;;3.67;2.67;;;;;14.49;100.00;100743.09;2079781;28;46451;-56
2023/12/10 04:18:52;;;;;;;;;4.33;2.00;;;;;14.49;100.00;100748.44;2084561;28;46256;-55
2023/12/10 04:19:52;;;;;;;;;3.00;2.00;;;;;14.48;100.00;100739.53;2088201;28;46671;-54
2023/12/10 04:20:53;;;;;;;;;5.67;3.33;;;;;14.49;100.00;100737.75;2088466;28;46514;-57
2023/12/10 04:21:53;;;;;;;;;5.00;2.33;;;;;14.49;100.00;100740.44;2088497;28;46630;-58
2023/12/10 04:22:53;;;;;;;;;3.00;2.00;;;;;14.49;100.00;100745.78;2088174;28;45804;-54
2023/12/10 04:23:54;;;;;;;;;4.00;2.00;;;;;14.50;100.00;100744.84;2087914;28;46302;-59
2023/12/10 04:24:54;;;;;;;;;3.33;3.33;;;;;14.50;100.00;100743.03;2088045;28;47019;-55
2023/12/10 04:25:54;;;;;;;;;5.67;3.00;;;;;14.50;100.00;100739.50;2088080;28;46265;-56
2023/12/10 04:26:54;;;;;;;;;3.33;3.00;;;;;14.51;100.00;100743.91;2087978;28;46444;-56
2023/12/10 04:27:55;;;;;;;;;3.00;3.00;;;;;14.50;100.00;100748.38;2086643;28;45983;-56
2023/12/10 04:28:55;;;;;;;;;2.33;2.33;;;;;14.50;100.00;100743.03;2087886;28;46705;-55
2023/12/10 04:29:55;;;;;;;;;2.00;2.00;;;;;14.50;100.00;100737.72;2088106;28;46243;-54
2023/12/10 04:30:56;;;;;;;;;4.33;3.00;;;;;14.50;100.00;100752.84;2088174;28;46247;-55
2023/12/10 04:31:56;;;;;;;;;5.00;2.00;;;;;14.51;100.00;100747.47;2078966;28;46436;-56
2023/12/10 04:32:56;;;;;;;;;2.00;1.33;;;;;14.50;100.00;100751.06;2079359;28;46837;-55
2023/12/10 04:33:57;;;;;;;;;4.33;2.00;;;;;14.50;100.00;100740.38;2088277;28;46402;-55
2023/12/10 04:34:57;;;;;;;;;5.00;3.00;;;;;14.49;100.00;100741.31;2087891;28;46496;-56
2023/12/10 04:35:57;;;;;;;;;2.67;2.33;;;;;14.49;100.00;100740.44;2087930;28;46207;-54
2023/12/10 04:36:58;;;;;;;;;5.33;3.67;;;;;14.49;100.00;100748.44;2087698;28;46586;-55
2023/12/10 04:37:58;;;;;;;;;4.00;3.00;;;;;14.49;100.00;100749.31;2087410;28;46650;-54
2023/12/10 04:38:58;;;;;;;;;2.33;2.33;;;;;14.50;100.00;100752.84;2088198;28;46708;-56